Time;durP1;ratioP1;P1;durP2;ratioP2;P2;SDS_P1;SDS_P2;PMS_P1;PMS_P2;Temp;Humidity;BMP_temperature;BMP_pressure;BME280_temperature;BME280_humidity;BME280_pressure;Samples;Min_cycle;Max_cycle;Signal;HPM_P1;HPM_P2
2022/07/06 00:02:22;;;;;;;4.82;2.90;;;21.40;55.60;;;;;;5068975;28;20044;-74
2022/07/06 00:04:49;;;;;;;4.82;2.83;;;21.40;55.60;;;;;;5068649;28;20083;-74
2022/07/06 00:07:16;;;;;;;4.68;3.03;;;21.50;55.70;;;;;;5070435;28;20186;-74
2022/07/06 00:09:43;;;;;;;4.22;2.88;;;21.50;55.70;;;;;;5069493;28;20136;-74
2022/07/06 00:12:10;;;;;;;5.05;2.90;;;21.40;55.60;;;;;;5069410;28;20143;-74
2022/07/06 00:14:38;;;;;;;4.70;3.00;;;21.40;55.60;;;;;;5068979;28;20171;-74
2022/07/06 00:17:05;;;;;;;4.82;3.05;;;21.40;55.70;;;;;;5069320;28;20062;-74
2022/07/06 00:19:31;;;;;;;5.05;2.70;;;21.40;55.70;;;;;;5068471;28;20056;-74
2022/07/06 00:21:58;;;;;;;4.55;2.53;;;21.40;55.70;;;;;;5049279;28;20057;-74
2022/07/06 00:24:25;;;;;;;3.92;2.42;;;21.40;55.70;;;;;;5054341;28;20128;-74
2022/07/06 00:26:51;;;;;;;5.00;2.78;;;21.40;55.80;;;;;;5069215;28;20140;-74
2022/07/06 00:29:18;;;;;;;6.13;2.55;;;21.40;55.80;;;;;;5069035;28;20056;-74
2022/07/06 00:31:46;;;;;;;4.00;2.47;;;21.40;55.70;;;;;;5068448;28;20501;-74
2022/07/06 00:34:13;;;;;;;4.50;2.63;;;21.40;55.80;;;;;;5068058;28;20076;-74
2022/07/06 00:36:39;;;;;;;3.67;2.80;;;21.40;55.80;;;;;;5065781;28;20072;-74
2022/07/06 00:39:06;;;;;;;4.25;2.42;;;21.40;55.90;;;;;;5068870;28;20053;-74
2022/07/06 00:41:33;;;;;;;3.80;2.53;;;21.40;55.80;;;;;;5068297;28;20075;-74
2022/07/06 00:44:00;;;;;;;3.80;2.50;;;21.30;55.70;;;;;;5068576;28;20139;-74
2022/07/06 00:46:29;;;;;;;3.80;2.45;;;21.30;55.80;;;;;;5068380;28;20152;-74
2022/07/06 00:48:57;;;;;;;3.22;2.30;;;21.20;55.60;;;;;;5068528;28;20059;-74
2022/07/06 00:51:26;;;;;;;5.35;2.40;;;21.30;55.80;;;;;;5062143;28;20045;-74
2022/07/06 00:53:53;;;;;;;3.20;2.40;;;21.30;55.80;;;;;;5047903;28;20056;-74
2022/07/06 00:56:20;;;;;;;4.72;2.65;;;21.30;55.80;;;;;;5048633;28;20504;-74
2022/07/06 00:58:46;;;;;;;3.53;2.20;;;21.30;55.80;;;;;;5057654;28;20097;-74
2022/07/06 01:01:13;;;;;;;3.85;2.50;;;21.30;55.80;;;;;;5061841;28;20099;-74
2022/07/06 01:03:40;;;;;;;3.05;2.10;;;21.30;57.20;;;;;;5048146;28;20059;-74
2022/07/06 01:06:08;;;;;;;3.60;2.28;;;21.30;55.80;;;;;;5052777;28;20136;-74
2022/07/06 01:08:35;;;;;;;5.28;2.60;;;21.30;55.80;;;;;;5068011;28;20051;-74
2022/07/06 01:11:02;;;;;;;3.78;2.38;;;21.30;55.80;;;;;;5066226;28;20132;-74
2022/07/06 01:13:29;;;;;;;4.68;2.50;;;21.30;55.80;;;;;;5051168;28;20421;-74
2022/07/06 01:15:55;;;;;;;3.85;2.35;;;21.30;55.90;;;;;;5067995;28;20059;-74
2022/07/06 01:18:22;;;;;;;3.60;2.13;;;21.20;55.80;;;;;;5068420;28;20348;-74
2022/07/06 01:20:50;;;;;;;3.78;2.35;;;21.30;55.80;;;;;;5061991;28;20056;-74
2022/07/06 01:23:17;;;;;;;3.70;2.40;;;21.20;55.80;;;;;;5047787;28;20063;-74
2022/07/06 01:25:44;;;;;;;4.07;2.22;;;21.20;55.80;;;;;;5064490;28;20059;-74
2022/07/06 01:28:10;;;;;;;3.35;2.00;;;21.20;55.90;;;;;;5067677;28;20055;-74
2022/07/06 01:30:37;;;;;;;3.80;2.40;;;21.20;55.90;;;;;;5067911;28;20513;-74
2022/07/06 01:33:04;;;;;;;4.45;2.38;;;21.30;55.90;;;;;;5067308;28;20063;-74
2022/07/06 01:35:31;;;;;;;3.13;2.10;;;21.20;55.80;;;;;;5068134;28;20131;-74
2022/07/06 01:37:59;;;;;;;3.70;2.13;;;21.20;55.80;;;;;;5066912;28;20140;-74
2022/07/06 01:40:25;;;;;;;2.75;1.98;;;21.20;55.90;;;;;;5067963;28;20066;-74
2022/07/06 01:42:52;;;;;;;2.83;1.90;;;21.20;55.90;;;;;;5067574;28;20052;-74
2022/07/06 01:45:19;;;;;;;3.10;2.13;;;21.20;55.90;;;;;;5067509;28;20070;-74
2022/07/06 01:47:45;;;;;;;3.35;2.28;;;21.20;55.90;;;;;;5067514;28;20059;-74
2022/07/06 01:50:12;;;;;;;2.88;2.00;;;21.20;55.90;;;;;;5067784;28;20567;-74
2022/07/06 01:52:39;;;;;;;2.65;1.98;;;21.10;55.90;;;;;;5049559;28;20063;-74
2022/07/06 01:55:08;;;;;;;3.88;2.10;;;21.20;55.90;;;;;;5057019;28;20570;-74
2022/07/06 01:57:35;;;;;;;5.18;2.22;;;21.20;55.90;;;;;;5067696;28;20063;-74
2022/07/06 02:00:01;;;;;;;3.08;2.00;;;21.10;55.90;;;;;;5067514;28;20420;-74
2022/07/06 02:02:28;;;;;;;2.83;1.90;;;21.10;55.90;;;;;;5066891;28;20063;-74
2022/07/06 02:04:55;;;;;;;3.42;2.10;;;21.10;55.80;;;;;;5070800;28;20048;-74
2022/07/06 02:07:21;;;;;;;2.85;1.88;;;21.10;55.90;;;;;;5070739;28;20049;-74
2022/07/06 02:09:48;;;;;;;3.25;1.80;;;21.10;56.00;;;;;;5072613;28;20146;-74
2022/07/06 02:12:16;;;;;;;2.75;1.83;;;21.10;55.90;;;;;;5071342;28;20127;-74
2022/07/06 02:14:43;;;;;;;2.88;1.90;;;21.20;56.00;;;;;;5071664;28;20135;-74
2022/07/06 02:17:10;;;;;;;3.28;1.88;;;21.10;56.00;;;;;;5071570;28;20045;-74
2022/07/06 02:19:36;;;;;;;2.78;1.80;;;21.10;56.00;;;;;;5071534;28;20074;-74
2022/07/06 02:22:03;;;;;;;2.95;1.90;;;21.10;55.90;;;;;;5070554;28;20135;-74
2022/07/06 02:24:30;;;;;;;2.47;1.73;;;21.10;56.00;;;;;;5072188;28;20050;-74
2022/07/06 02:26:57;;;;;;;3.03;1.70;;;21.10;56.00;;;;;;5071096;28;20124;-74
2022/07/06 02:29:25;;;;;;;3.00;1.60;;;21.10;56.00;;;;;;5071216;28;20053;-74
2022/07/06 02:31:52;;;;;;;3.15;1.60;;;21.10;56.00;;;;;;5071331;28;20533;-74
2022/07/06 02:34:19;;;;;;;2.20;1.70;;;21.10;56.10;;;;;;5070910;28;20139;-74
2022/07/06 02:36:46;;;;;;;3.25;1.75;;;21.00;55.90;;;;;;5070346;28;20109;-74
2022/07/06 02:39:12;;;;;;;3.00;1.92;;;21.10;58.10;;;;;;5071127;28;20171;-74
2022/07/06 02:41:39;;;;;;;2.40;1.70;;;21.00;56.00;;;;;;5071080;28;20052;-74
2022/07/06 02:44:06;;;;;;;2.85;1.58;;;21.00;56.00;;;;;;5070829;28;20052;-74
2022/07/06 02:46:34;;;;;;;2.10;1.70;;;21.00;56.00;;;;;;5070736;28;20128;-74
2022/07/06 02:49:02;;;;;;;2.55;1.83;;;21.00;56.00;;;;;;5070718;28;20131;-74
2022/07/06 02:51:28;;;;;;;3.40;1.80;;;21.00;56.00;;;;;;5070056;28;20147;-74
2022/07/06 02:53:55;;;;;;;3.00;1.83;;;21.00;56.00;;;;;;5070373;28;20044;-74
2022/07/06 02:56:22;;;;;;;2.78;1.90;;;21.00;56.00;;;;;;5070792;28;20055;-74
2022/07/06 02:58:48;;;;;;;2.85;1.65;;;21.00;56.00;;;;;;5070656;28;20135;-74
2022/07/06 03:01:16;;;;;;;2.80;1.67;;;21.00;56.00;;;;;;5070222;28;20048;-74
2022/07/06 03:03:44;;;;;;;3.05;1.70;;;21.00;56.00;;;;;;5070256;28;20135;-74
2022/07/06 03:06:10;;;;;;;2.67;1.80;;;20.90;55.90;;;;;;5069842;28;20182;-74
2022/07/06 03:08:37;;;;;;;2.55;1.70;;;20.90;56.00;;;;;;5070338;28;20139;-74
2022/07/06 03:11:04;;;;;;;2.83;1.83;;;20.90;56.00;;;;;;5070209;28;20072;-76
2022/07/06 03:13:30;;;;;;;2.70;1.60;;;20.90;56.00;;;;;;5069904;28;20049;-74
2022/07/06 03:15:57;;;;;;;2.35;1.67;;;20.90;56.00;;;;;;5070058;28;20044;-74
2022/07/06 03:18:24;;;;;;;2.55;1.58;;;20.90;56.00;;;;;;5070256;28;20137;-75
2022/07/06 03:20:52;;;;;;;3.10;1.77;;;20.90;56.00;;;;;;5069985;28;20140;-74
2022/07/06 03:23:19;;;;;;;2.05;1.40;;;21.60;58.50;;;;;;5050941;28;20049;-74
2022/07/06 03:25:45;;;;;;;3.45;1.60;;;20.90;56.00;;;;;;5066777;28;20428;-74
2022/07/06 03:28:12;;;;;;;2.20;1.50;;;20.30;58.00;;;;;;5070011;28;20136;-75
2022/07/06 03:30:39;;;;;;;2.75;1.80;;;20.90;56.00;;;;;;5069967;28;20065;-74
2022/07/06 03:33:05;;;;;;;2.50;1.50;;;20.90;56.00;;;;;;5069888;28;20139;-74
2022/07/06 03:35:32;;;;;;;2.00;1.33;;;20.90;56.00;;;;;;5068985;28;20139;-76
2022/07/06 03:38:02;;;;;;;3.53;1.50;;;20.80;56.00;;;;;;5071195;28;20054;-74
2022/07/06 03:40:29;;;;;;;1.90;1.45;;;20.90;56.00;;;;;;5069683;28;20101;-74
2022/07/06 03:42:56;;;;;;;2.45;1.40;;;20.80;56.00;;;;;;5069864;28;20060;-74
2022/07/06 03:45:23;;;;;;;2.25;1.40;;;20.80;56.00;;;;;;5069995;28;20084;-75
2022/07/06 03:47:49;;;;;;;2.42;1.50;;;20.80;55.90;;;;;;5069738;28;20048;-74
2022/07/06 03:50:16;;;;;;;1.88;1.48;;;20.80;55.90;;;;;;5069205;28;20052;-74
2022/07/06 03:52:43;;;;;;;1.92;1.40;;;20.80;55.90;;;;;;5069855;28;20159;-75
2022/07/06 03:55:11;;;;;;;2.20;1.30;;;20.80;55.90;;;;;;5069583;28;20128;-74
2022/07/06 03:57:39;;;;;;;2.00;1.50;;;20.80;55.90;;;;;;5069976;28;20405;-74
2022/07/06 04:00:07;;;;;;;2.17;1.58;;;20.80;55.90;;;;;;5069702;28;20101;-74
2022/07/06 04:02:34;;;;;;;2.92;1.73;;;20.80;55.90;;;;;;5069143;28;20052;-74
2022/07/06 04:05:00;;;;;;;1.80;1.33;;;19.80;57.70;;;;;;5068441;28;20055;-74
2022/07/06 04:07:27;;;;;;;2.90;1.67;;;20.80;55.90;;;;;;5069392;28;20055;-74
2022/07/06 04:09:54;;;;;;;2.15;1.35;;;20.80;55.90;;;;;;5069278;28;20486;-74
2022/07/06 04:12:22;;;;;;;2.03;1.40;;;20.80;55.90;;;;;;5068923;28;20083;-74
2022/07/06 04:14:48;;;;;;;1.73;1.20;;;20.80;55.90;;;;;;5060894;28;20052;-74
2022/07/06 04:19:59;;;;;;;1.97;1.30;;;20.70;58.10;;;;;;5057516;28;20056;-74
2022/07/06 04:22:26;;;;;;;2.20;1.50;;;20.80;55.90;;;;;;5057955;28;20481;-74
2022/07/06 04:24:53;;;;;;;1.30;1.15;;;20.70;55.80;;;;;;5060707;28;20049;-74
2022/07/06 04:27:19;;;;;;;2.78;1.50;;;20.60;58.30;;;;;;5056991;28;20051;-73
2022/07/06 04:29:47;;;;;;;2.50;1.30;;;21.90;58.80;;;;;;5059740;28;20050;-74
2022/07/06 04:32:14;;;;;;;3.65;1.25;;;20.80;55.90;;;;;;5062885;28;20053;-79
2022/07/06 04:34:41;;;;;;;1.90;1.30;;;20.90;55.80;;;;;;5068023;28;20131;-75
2022/07/06 04:37:07;;;;;;;1.50;1.15;;;20.80;55.60;;;;;;5052863;28;20511;-76
2022/07/06 04:39:34;;;;;;;2.03;1.40;;;20.80;55.70;;;;;;5069037;28;20053;-80
2022/07/06 04:42:01;;;;;;;1.95;1.17;;;20.80;55.70;;;;;;5069214;28;20063;-76
2022/07/06 04:44:28;;;;;;;1.77;1.38;;;20.80;55.70;;;;;;5048693;28;20049;-75
2022/07/06 04:46:56;;;;;;;1.80;1.20;;;20.80;55.70;;;;;;5048989;28;20048;-75
2022/07/06 04:49:22;;;;;;;3.03;1.40;;;20.80;55.70;;;;;;5049548;28;20128;-76
2022/07/06 04:51:49;;;;;;;2.25;1.35;;;20.70;58.50;;;;;;5066156;28;20118;-78
2022/07/06 04:54:16;;;;;;;1.98;1.40;;;20.70;55.70;;;;;;5063218;28;20080;-76
2022/07/06 04:56:42;;;;;;;1.55;1.13;;;20.80;55.80;;;;;;5048916;28;20059;-76
2022/07/06 04:59:09;;;;;;;1.67;1.20;;;21.00;56.40;;;;;;5068512;28;20080;-78
2022/07/06 05:01:36;;;;;;;2.10;1.02;;;20.70;55.80;;;;;;5061226;28;20052;-77
2022/07/06 05:04:04;;;;;;;2.17;1.27;;;20.70;55.70;;;;;;5068163;28;20147;-76
2022/07/06 05:06:31;;;;;;;1.40;1.20;;;20.70;55.70;;;;;;5068346;28;20071;-74
2022/07/06 05:08:59;;;;;;;2.78;1.33;;;20.70;56.10;;;;;;5068037;28;20063;-74
2022/07/06 05:11:26;;;;;;;1.95;1.20;;;20.70;55.80;;;;;;5068425;28;20056;-74
2022/07/06 05:13:52;;;;;;;2.17;1.50;;;20.80;58.30;;;;;;5068200;28;20139;-74
2022/07/06 05:16:19;;;;;;;2.10;1.20;;;20.70;55.70;;;;;;5067290;28;20048;-74
2022/07/06 05:18:47;;;;;;;2.33;1.10;;;20.70;55.70;;;;;;5068470;28;20059;-74
2022/07/06 05:21:15;;;;;;;1.52;1.13;;;20.80;58.20;;;;;;5068084;28;20049;-74
2022/07/06 05:23:42;;;;;;;2.00;1.10;;;20.80;55.80;;;;;;5067921;28;20083;-74
2022/07/06 05:26:09;;;;;;;1.38;1.15;;;20.80;55.70;;;;;;5067838;28;20490;-74
2022/07/06 05:28:35;;;;;;;3.40;1.50;;;20.80;55.70;;;;;;5067931;28;20087;-74
2022/07/06 05:31:02;;;;;;;2.25;1.20;;;20.80;55.70;;;;;;5067329;28;20489;-74
2022/07/06 05:33:29;;;;;;;1.70;1.20;;;20.80;55.70;;;;;;5067799;28;20135;-74
2022/07/06 05:35:55;;;;;;;1.95;1.08;;;20.80;55.70;;;;;;5068209;28;20592;-74
2022/07/06 05:38:23;;;;;;;1.80;1.20;;;20.70;55.60;;;;;;5067914;28;20123;-74
2022/07/06 05:40:50;;;;;;;1.48;1.10;;;20.80;55.70;;;;;;5067730;28;20135;-74
2022/07/06 05:43:17;;;;;;;1.58;0.93;;;20.80;55.70;;;;;;5067784;28;20131;-74
2022/07/06 05:45:44;;;;;;;1.70;1.20;;;20.80;55.70;;;;;;5066751;28;20127;-74
2022/07/06 05:50:55;;;;;;;1.90;1.08;;;20.80;55.70;;;;;;5067663;28;20044;-74
2022/07/06 05:53:21;;;;;;;2.22;1.20;;;20.80;55.70;;;;;;5067778;28;20060;-74
2022/07/06 05:55:49;;;;;;;1.88;1.10;;;20.80;55.70;;;;;;5067654;28;20519;-74
2022/07/06 05:58:16;;;;;;;3.60;1.10;;;20.80;55.70;;;;;;5067900;28;20604;-74
2022/07/06 06:00:43;;;;;;;3.15;1.20;;;20.80;55.90;;;;;;5054501;28;20128;-77
2022/07/06 06:03:10;;;;;;;1.20;0.90;;;20.80;55.80;;;;;;5067466;28;20135;-75
2022/07/06 06:05:36;;;;;;;3.45;0.98;;;22.00;59.10;;;;;;5068707;28;20051;-74
2022/07/06 06:08:03;;;;;;;2.47;1.10;;;20.80;55.80;;;;;;5056211;28;20053;-74
2022/07/06 06:10:30;;;;;;;2.60;1.17;;;20.30;57.70;;;;;;5057228;28;20052;-74
2022/07/06 06:12:59;;;;;;;4.35;1.13;;;20.80;55.70;;;;;;5050105;28;20139;-74
2022/07/06 06:15:25;;;;;;;2.67;1.17;;;20.80;55.50;;;;;;5047761;28;20053;-74
2022/07/06 06:17:52;;;;;;;6.38;1.20;;;20.80;55.50;;;;;;5046482;28;20048;-74
2022/07/06 06:20:19;;;;;;;2.25;0.90;;;20.80;55.60;;;;;;5050383;28;20053;-74
2022/07/06 06:22:47;;;;;;;1.35;0.90;;;20.80;55.60;;;;;;5056424;28;20539;-74
2022/07/06 06:25:14;;;;;;;4.13;1.02;;;20.70;55.60;;;;;;5058911;28;20057;-74
2022/07/06 06:27:41;;;;;;;5.55;1.20;;;20.80;57.90;;;;;;5057954;28;20124;-74
2022/07/06 06:30:10;;;;;;;0.93;0.80;;;21.40;58.70;;;;;;5055436;28;20411;-74
2022/07/06 06:32:36;;;;;;;1.63;1.00;;;20.80;55.70;;;;;;5048853;28;20167;-74
2022/07/06 06:35:03;;;;;;;2.47;0.98;;;20.80;58.00;;;;;;5047189;28;20600;-74
2022/07/06 06:37:30;;;;;;;1.90;1.00;;;20.80;55.70;;;;;;5047587;28;20087;-75
2022/07/06 06:39:57;;;;;;;1.23;1.00;;;20.80;55.70;;;;;;5054832;28;20068;-74
2022/07/06 06:42:23;;;;;;;2.33;1.00;;;20.80;55.70;;;;;;5067352;28;20056;-74
2022/07/06 06:44:50;;;;;;;2.45;0.90;;;20.80;55.70;;;;;;5066012;28;20432;-73
2022/07/06 06:47:19;;;;;;;1.70;0.95;;;20.80;55.70;;;;;;5066664;28;20071;-74
2022/07/06 06:49:45;;;;;;;4.55;1.42;;;20.80;58.10;;;;;;5067407;28;20712;-76
2022/07/06 06:52:12;;;;;;;3.63;1.50;;;20.90;55.80;;;;;;5070349;28;20045;-75
2022/07/06 06:54:39;;;;;;;5.20;1.60;;;20.90;56.30;;;;;;5070890;28;20048;-74
2022/07/06 06:57:05;;;;;;;3.85;1.50;;;20.90;55.70;;;;;;5072249;28;20525;-75
2022/07/06 06:59:32;;;;;;;2.75;1.42;;;20.90;55.70;;;;;;5055141;28;20063;-74
2022/07/06 07:01:59;;;;;;;4.50;1.40;;;21.00;55.70;;;;;;5062426;28;20083;-74
2022/07/06 07:04:29;;;;;;;4.00;1.27;;;21.10;55.60;;;;;;5070652;28;20052;-74
2022/07/06 07:06:55;;;;;;;8.32;2.22;;;21.20;55.50;;;;;;5070875;28;20410;-74
2022/07/06 07:09:22;;;;;;;3.00;1.50;;;21.30;55.30;;;;;;5070576;28;20135;-74
2022/07/06 07:11:49;;;;;;;3.40;1.30;;;21.40;55.10;;;;;;5060617;28;20136;-74
2022/07/06 07:14:15;;;;;;;3.33;1.20;;;21.60;55.00;;;;;;5064228;28;20131;-74
2022/07/06 07:16:43;;;;;;;3.92;1.33;;;21.70;57.20;;;;;;5069767;28;20056;-74
2022/07/06 07:19:09;;;;;;;2.85;1.30;;;21.50;54.80;;;;;;5069562;28;20080;-74
2022/07/06 07:21:37;;;;;;;5.78;1.35;;;21.70;54.50;;;;;;5070629;28;20062;-74
2022/07/06 07:24:04;;;;;;;3.72;1.45;;;21.80;54.40;;;;;;5070207;28;20074;-74
2022/07/06 07:26:31;;;;;;;3.08;1.27;;;21.80;54.40;;;;;;5070304;28;20048;-74
2022/07/06 07:28:58;;;;;;;3.97;1.40;;;22.00;54.50;;;;;;5069398;28;20456;-74
2022/07/06 07:31:24;;;;;;;4.20;1.55;;;21.90;54.40;;;;;;5069864;28;20147;-74
2022/07/06 07:33:51;;;;;;;2.50;1.30;;;21.90;54.40;;;;;;5067209;28;20160;-74
2022/07/06 07:36:18;;;;;;;4.78;1.40;;;21.80;54.30;;;;;;5070189;28;20061;-74
2022/07/06 07:38:46;;;;;;;4.47;1.23;;;21.90;54.40;;;;;;5070866;28;20078;-75
2022/07/06 07:41:13;;;;;;;4.35;1.42;;;22.00;57.30;;;;;;5069980;28;20568;-73
2022/07/06 07:43:40;;;;;;;4.50;1.42;;;21.80;54.50;;;;;;5067856;28;20048;-74
2022/07/06 07:46:07;;;;;;;2.38;1.40;;;21.80;54.50;;;;;;5050181;28;20545;-74
2022/07/06 07:48:34;;;;;;;5.00;1.50;;;21.80;54.60;;;;;;5049714;28;20128;-74
2022/07/06 07:51:00;;;;;;;3.65;1.40;;;21.80;54.60;;;;;;5058070;28;20131;-74
2022/07/06 07:53:27;;;;;;;3.20;1.20;;;21.90;56.30;;;;;;5070049;28;20060;-73
2022/07/06 07:55:56;;;;;;;3.53;1.02;;;21.70;54.60;;;;;;5069804;28;20056;-73
2022/07/06 07:58:23;;;;;;;3.67;1.30;;;21.70;54.60;;;;;;5053284;28;20136;-74
2022/07/06 08:00:49;;;;;;;2.30;1.20;;;21.70;54.70;;;;;;5068446;28;20131;-74
2022/07/06 08:03:16;;;;;;;3.67;1.45;;;21.70;54.80;;;;;;5068093;28;20374;-74
2022/07/06 08:05:43;;;;;;;2.05;1.00;;;21.70;54.80;;;;;;5069448;28;20055;-74
2022/07/06 08:08:10;;;;;;;4.63;1.40;;;21.70;54.80;;;;;;5069354;28;20572;-74
2022/07/06 08:10:36;;;;;;;3.78;1.10;;;21.70;54.80;;;;;;5069376;28;20135;-74
2022/07/06 08:13:06;;;;;;;2.97;1.05;;;21.70;54.70;;;;;;5069867;28;20400;-74
2022/07/06 08:15:33;;;;;;;3.22;1.15;;;21.70;54.70;;;;;;5049741;28;20075;-74
2022/07/06 08:18:00;;;;;;;4.70;1.10;;;21.80;54.60;;;;;;5049065;28;20123;-74
2022/07/06 08:20:27;;;;;;;2.78;1.20;;;21.90;54.60;;;;;;5049247;28;20056;-74
2022/07/06 08:22:54;;;;;;;4.90;1.10;;;22.00;54.50;;;;;;5049596;28;20429;-75
2022/07/06 08:25:20;;;;;;;3.83;1.20;;;22.10;54.40;;;;;;5062689;28;20107;-74
2022/07/06 08:27:48;;;;;;;1.92;1.20;;;22.10;54.30;;;;;;5069040;28;20131;-74
2022/07/06 08:30:16;;;;;;;2.88;1.38;;;22.20;54.10;;;;;;5048901;28;20452;-74
2022/07/06 08:32:42;;;;;;;2.03;1.02;;;22.40;54.10;;;;;;5059720;28;20143;-74
2022/07/06 08:35:10;;;;;;;3.08;1.10;;;21.70;55.80;;;;;;5069083;28;20056;-74
2022/07/06 08:37:37;;;;;;;2.33;0.95;;;22.50;53.80;;;;;;5068814;28;20128;-75
2022/07/06 08:40:04;;;;;;;2.97;1.00;;;22.80;53.80;;;;;;5068879;28;20063;-74
2022/07/06 08:42:32;;;;;;;1.63;1.00;;;22.60;53.60;;;;;;5068056;28;20508;-74
2022/07/06 08:44:59;;;;;;;1.35;0.90;;;22.70;53.60;;;;;;5068397;28;20063;-74
2022/07/06 08:47:28;;;;;;;1.13;0.80;;;22.70;53.50;;;;;;5069686;28;20052;-74
2022/07/06 08:49:54;;;;;;;1.60;0.90;;;22.70;53.50;;;;;;5069000;28;20049;-74
2022/07/06 08:52:21;;;;;;;2.28;1.20;;;22.60;53.40;;;;;;5068274;28;20055;-76
2022/07/06 08:54:48;;;;;;;2.88;1.02;;;22.60;53.50;;;;;;5068394;28;20485;-74
2022/07/06 08:57:14;;;;;;;1.38;0.90;;;22.60;53.50;;;;;;5068597;28;20128;-74
2022/07/06 08:59:41;;;;;;;1.52;0.90;;;22.60;53.50;;;;;;5052123;28;20403;-74
2022/07/06 09:02:08;;;;;;;2.65;1.10;;;22.60;53.60;;;;;;5061551;28;20061;-74
2022/07/06 09:04:36;;;;;;;1.98;0.95;;;22.50;53.40;;;;;;5068665;28;20106;-74
2022/07/06 09:07:03;;;;;;;1.75;0.88;;;22.50;53.50;;;;;;5068521;28;20060;-74
2022/07/06 09:09:30;;;;;;;1.65;1.00;;;22.50;53.40;;;;;;5069621;28;20044;-75
2022/07/06 09:11:57;;;;;;;1.85;0.90;;;22.50;53.40;;;;;;5069977;28;20448;-74
2022/07/06 09:14:24;;;;;;;1.42;0.82;;;22.60;53.50;;;;;;5067125;28;20465;-75
2022/07/06 09:16:53;;;;;;;2.28;1.00;;;22.60;53.50;;;;;;5068300;28;20415;-74
2022/07/06 09:19:19;;;;;;;1.20;0.90;;;22.60;53.40;;;;;;5068313;28;20608;-74
2022/07/06 09:21:47;;;;;;;2.90;0.98;;;22.60;53.40;;;;;;5068189;28;20494;-74
2022/07/06 09:24:14;;;;;;;1.90;1.00;;;22.70;53.40;;;;;;5068848;28;20041;-74
2022/07/06 09:26:41;;;;;;;1.77;0.95;;;22.80;53.40;;;;;;5068166;28;20079;-74
2022/07/06 09:29:08;;;;;;;1.83;0.90;;;22.80;53.70;;;;;;5066896;28;20055;-73
2022/07/06 09:31:35;;;;;;;1.63;0.82;;;22.80;53.20;;;;;;5068503;28;20511;-74
2022/07/06 09:34:05;;;;;;;1.90;0.80;;;22.80;53.20;;;;;;5068129;28;20140;-73
2022/07/06 09:36:39;;;;;;;1.52;0.90;;;22.80;53.10;;;;;;5068250;28;20497;-74
2022/07/06 09:39:23;;;;;;;1.53;1.07;;;22.60;53.10;;;;;;5067983;28;20417;-74
2022/07/06 09:41:51;;;;;;;1.17;1.00;;;22.90;53.30;;;;;;5067375;28;20621;-74
2022/07/06 09:44:25;;;;;;;1.42;0.90;;;22.90;53.20;;;;;;5068254;28;20051;-74
2022/07/06 09:46:51;;;;;;;1.92;1.10;;;22.80;53.10;;;;;;5067470;28;20053;-74
2022/07/06 09:49:19;;;;;;;2.78;0.95;;;22.90;53.30;;;;;;5067961;28;20040;-74
2022/07/06 09:51:46;;;;;;;2.92;1.00;;;22.80;53.20;;;;;;5067650;28;20048;-73
2022/07/06 09:54:13;;;;;;;3.33;0.90;;;22.80;53.30;;;;;;5060991;28;20696;-73
2022/07/06 09:56:41;;;;;;;2.72;0.80;;;22.80;53.40;;;;;;5055789;28;20041;-73
2022/07/06 09:59:11;;;;;;;3.03;0.82;;;22.80;53.40;;;;;;5047448;28;20078;-73
2022/07/06 10:01:38;;;;;;;1.40;0.80;;;22.80;53.40;;;;;;5057818;28;20049;-72
2022/07/06 10:04:06;;;;;;;3.03;0.88;;;22.80;53.40;;;;;;5060727;28;20052;-72
2022/07/06 10:06:33;;;;;;;1.67;0.60;;;22.80;53.40;;;;;;5056529;28;20052;-72
2022/07/06 10:08:59;;;;;;;1.80;0.90;;;22.50;53.20;;;;;;5051000;28;20068;-72
2022/07/06 10:11:26;;;;;;;1.20;0.85;;;22.80;53.50;;;;;;5068081;28;20401;-72
2022/07/06 10:13:56;;;;;;;1.17;0.80;;;23.00;55.50;;;;;;5067489;28;20143;-72
2022/07/06 10:16:24;;;;;;;2.95;0.90;;;22.90;53.40;;;;;;5067918;28;20053;-72
2022/07/06 10:18:53;;;;;;;2.40;0.93;;;22.90;53.40;;;;;;5067775;28;20139;-72
2022/07/06 10:21:20;;;;;;;2.40;0.80;;;22.90;53.40;;;;;;5057526;28;20048;-72
2022/07/06 10:23:47;;;;;;;1.65;0.80;;;23.00;53.50;;;;;;5056104;28;20061;-72
2022/07/06 10:26:13;;;;;;;2.38;0.88;;;23.00;53.40;;;;;;5057613;28;20057;-72
2022/07/06 10:28:40;;;;;;;1.08;0.70;;;23.00;53.50;;;;;;5051383;28;20041;-72
2022/07/06 10:31:08;;;;;;;1.55;0.90;;;23.00;53.60;;;;;;5053804;28;20136;-73
2022/07/06 10:33:35;;;;;;;0.90;0.80;;;23.00;53.50;;;;;;5056103;28;20589;-73
2022/07/06 10:36:01;;;;;;;1.23;0.70;;;23.00;53.50;;;;;;5051493;28;20085;-74
2022/07/06 10:38:31;;;;;;;1.63;0.70;;;23.00;53.50;;;;;;5051552;28;20456;-73
2022/07/06 10:41:04;;;;;;;1.25;0.70;;;23.00;53.40;;;;;;5051320;28;20043;-74
2022/07/06 10:43:37;;;;;;;1.60;0.70;;;23.10;53.40;;;;;;5050807;28;20079;-74
2022/07/06 10:46:10;;;;;;;1.83;0.70;;;23.10;53.30;;;;;;5051338;28;20148;-74
2022/07/06 10:48:37;;;;;;;2.03;0.70;;;23.10;53.20;;;;;;5051089;28;20514;-74
2022/07/06 10:51:04;;;;;;;2.42;0.90;;;23.10;53.20;;;;;;5050904;28;20144;-74
2022/07/06 10:53:33;;;;;;;2.05;0.65;;;23.10;53.10;;;;;;5051529;28;20049;-74
2022/07/06 10:56:01;;;;;;;1.45;0.68;;;23.20;53.10;;;;;;5058671;28;20052;-74
2022/07/06 10:58:39;;;;;;;1.38;0.70;;;23.20;53.10;;;;;;5063874;28;20045;-74
2022/07/06 11:01:06;;;;;;;1.02;0.60;;;23.20;53.00;;;;;;5058014;28;20413;-74
2022/07/06 11:03:48;;;;;;;1.15;0.80;;;23.20;53.00;;;;;;5060047;28;20056;-75
2022/07/06 11:06:16;;;;;;;1.10;0.75;;;23.30;53.00;;;;;;5058550;28;20465;-74
2022/07/06 11:08:47;;;;;;;1.75;0.70;;;23.30;53.00;;;;;;5061039;28;20050;-74
2022/07/06 11:11:16;;;;;;;1.38;0.80;;;23.30;52.90;;;;;;5061413;28;20095;-74
2022/07/06 11:13:43;;;;;;;0.82;0.52;;;23.30;52.90;;;;;;5059168;28;20126;-74
2022/07/06 11:16:10;;;;;;;2.25;0.70;;;23.30;52.90;;;;;;5071324;28;20051;-74
2022/07/06 11:18:42;;;;;;;0.90;0.70;;;23.30;52.80;;;;;;5070518;28;20051;-74
2022/07/06 11:21:33;;;;;;;1.13;0.60;;;23.40;52.80;;;;;;5070127;28;20127;-74
2022/07/06 11:23:59;;;;;;;1.15;0.70;;;23.30;52.80;;;;;;5065463;28;20057;-75
2022/07/06 11:26:26;;;;;;;1.75;0.60;;;23.40;52.90;;;;;;5050203;28;20632;-74
2022/07/06 11:28:53;;;;;;;0.90;0.60;;;23.40;52.90;;;;;;5050338;28;20055;-74
2022/07/06 11:31:20;;;;;;;1.33;0.80;;;23.40;52.80;;;;;;5050109;28;20152;-74
2022/07/06 11:33:48;;;;;;;1.38;0.55;;;23.40;52.80;;;;;;5050031;28;20500;-73
2022/07/06 11:36:19;;;;;;;4.43;0.90;;;23.40;52.70;;;;;;5050853;28;20045;-73
2022/07/06 11:38:46;;;;;;;1.48;0.90;;;23.40;51.80;;;;;;5051171;28;20052;-73
2022/07/06 11:41:13;;;;;;;4.60;1.23;;;23.30;51.90;;;;;;5069856;28;20413;-73
2022/07/06 11:43:43;;;;;;;7.25;1.30;;;23.20;52.10;;;;;;5069332;28;20059;-73
2022/07/06 11:46:20;;;;;;;7.43;1.05;;;23.30;52.40;;;;;;5061779;28;20055;-73
2022/07/06 11:48:48;;;;;;;4.80;1.00;;;23.30;52.50;;;;;;5049370;28;20045;-73
2022/07/06 11:51:15;;;;;;;2.50;0.80;;;23.30;52.60;;;;;;5049922;28;20059;-73
2022/07/06 11:53:45;;;;;;;7.55;0.90;;;23.30;52.80;;;;;;5066450;28;20037;-73
2022/07/06 11:56:11;;;;;;;1.48;0.68;;;23.30;52.80;;;;;;5069766;28;20131;-73
2022/07/06 11:58:38;;;;;;;2.22;0.80;;;23.30;52.80;;;;;;5069765;28;20052;-73
2022/07/06 12:01:06;;;;;;;2.63;0.93;;;23.30;52.90;;;;;;5070258;28;20084;-73
2022/07/06 12:03:34;;;;;;;3.55;0.82;;;23.40;52.90;;;;;;5068889;28;20401;-73
2022/07/06 12:06:02;;;;;;;2.70;0.90;;;23.40;53.00;;;;;;5069539;28;20049;-73
2022/07/06 12:08:30;;;;;;;3.38;0.80;;;23.40;53.10;;;;;;5068394;28;20408;-73
2022/07/06 12:10:56;;;;;;;2.67;0.90;;;23.40;53.20;;;;;;5069055;28;20210;-73
2022/07/06 12:13:23;;;;;;;1.70;0.80;;;23.40;53.40;;;;;;5068933;28;20417;-73
2022/07/06 12:15:50;;;;;;;2.13;0.70;;;23.40;53.50;;;;;;5069332;28;20070;-73
2022/07/06 12:18:17;;;;;;;3.83;1.20;;;23.40;53.60;;;;;;5069211;28;20135;-73
2022/07/06 12:20:43;;;;;;;2.17;0.60;;;23.40;54.10;;;;;;5069145;28;20083;-73
2022/07/06 12:23:12;;;;;;;2.38;0.80;;;23.40;54.30;;;;;;5068510;28;20135;-73
2022/07/06 12:25:38;;;;;;;2.92;1.00;;;23.40;54.30;;;;;;5069140;28;20079;-73
2022/07/06 12:28:06;;;;;;;2.55;0.82;;;23.40;54.20;;;;;;5068214;28;20127;-72
2022/07/06 12:30:33;;;;;;;3.25;0.85;;;23.60;54.00;;;;;;5068382;28;20412;-73
2022/07/06 12:33:18;;;;;;;2.50;0.90;;;23.40;53.70;;;;;;5051662;28;20053;-73
2022/07/06 12:35:44;;;;;;;4.18;1.10;;;23.40;53.60;;;;;;5048610;28;20063;-73
2022/07/06 12:38:13;;;;;;;2.28;0.88;;;23.40;53.90;;;;;;5055859;28;20052;-73
2022/07/06 12:40:39;;;;;;;3.63;1.02;;;23.40;54.10;;;;;;5068880;28;20417;-73
2022/07/06 12:43:06;;;;;;;3.13;0.82;;;23.40;54.10;;;;;;5068290;28;20052;-73
2022/07/06 12:45:33;;;;;;;1.20;0.70;;;23.40;54.10;;;;;;5068520;28;20139;-72
2022/07/06 12:48:00;;;;;;;3.00;0.82;;;23.40;54.10;;;;;;5067536;28;20048;-73
2022/07/06 12:50:33;;;;;;;1.50;0.77;;;23.50;54.10;;;;;;5068137;28;20481;-73
2022/07/06 12:53:00;;;;;;;3.17;0.70;;;23.40;54.00;;;;;;5060323;28;20063;-73
2022/07/06 12:55:28;;;;;;;1.50;0.80;;;23.50;54.40;;;;;;5048507;28;20052;-73